Time;durP1;ratioP1;P1;durP2;ratioP2;P2;SDS_P1;SDS_P2;PMS_P1;PMS_P2;Temp;Humidity;BMP_temperature;BMP_pressure;BME280_temperature;BME280_humidity;BME280_pressure;Samples;Min_cycle;Max_cycle;Signal;HPM_P1;HPM_P2
2022/10/31 00:02:25;;;;;;;83.33;36.70;;;;;;;;;;5043465;28;20398;-74
2022/10/31 00:04:50;;;;;;;88.60;37.97;;;;;;;;;;5026428;28;20270;-74
2022/10/31 00:07:15;;;;;;;87.13;37.57;;;;;;;;;;5032534;28;20285;-74
2022/10/31 00:09:40;;;;;;;87.00;37.70;;;;;;;;;;5035231;28;20286;-74
2022/10/31 00:12:06;;;;;;;86.40;36.47;;;;;;;;;;5045842;28;20290;-75
2022/10/31 00:14:31;;;;;;;95.53;38.57;;;;;;;;;;5032341;28;20060;-75
2022/10/31 00:16:56;;;;;;;95.32;40.33;;;;;;;;;;5051421;28;20083;-75
2022/10/31 00:19:21;;;;;;;90.57;37.17;;;;;;;;;;5052504;28;20082;-74
2022/10/31 00:21:46;;;;;;;96.47;39.17;;;;;;;;;;5052739;28;20036;-75
2022/10/31 00:24:12;;;;;;;100.47;39.97;;;;;;;;;;5047889;28;20025;-75
2022/10/31 00:26:37;;;;;;;99.63;38.67;;;;;;;;;;5045762;28;20099;-75
2022/10/31 00:29:02;;;;;;;95.03;38.17;;;;;;;;;;5049246;28;20807;-74
2022/10/31 00:31:28;;;;;;;95.80;38.13;;;;;;;;;;5033308;28;20103;-75
2022/10/31 00:33:53;;;;;;;90.45;36.80;;;;;;;;;;5037713;28;20475;-75
2022/10/31 00:36:19;;;;;;;82.70;35.13;;;;;;;;;;5048858;28;20021;-75
2022/10/31 00:38:45;;;;;;;83.07;36.97;;;;;;;;;;5051672;28;20282;-75
2022/10/31 00:41:11;;;;;;;93.88;36.67;;;;;;;;;;5053236;28;20107;-75
2022/10/31 00:43:36;;;;;;;86.13;34.38;;;;;;;;;;5053166;28;20488;-75
2022/10/31 00:46:01;;;;;;;80.93;34.28;;;;;;;;;;5053170;28;20029;-75
2022/10/31 00:48:26;;;;;;;93.73;36.43;;;;;;;;;;5048742;28;20096;-75
2022/10/31 00:50:52;;;;;;;94.30;37.60;;;;;;;;;;5032252;28;20265;-74
2022/10/31 00:53:17;;;;;;;92.43;37.92;;;;;;;;;;5048085;28;20273;-75
2022/10/31 00:55:42;;;;;;;87.93;36.20;;;;;;;;;;5054018;28;20154;-76
2022/10/31 00:58:07;;;;;;;101.60;37.87;;;;;;;;;;5045954;28;20032;-74
2022/10/31 01:00:33;;;;;;;88.00;37.13;;;;;;;;;;5050770;28;20043;-73
2022/10/31 01:02:58;;;;;;;89.03;35.22;;;;;;;;;;5042297;28;20025;-75
2022/10/31 01:05:23;;;;;;;88.73;35.57;;;;;;;;;;5034479;28;20155;-75
2022/10/31 01:07:48;;;;;;;85.10;34.63;;;;;;;;;;5036707;28;20024;-74
2022/10/31 01:10:14;;;;;;;89.18;36.03;;;;;;;;;;5031061;28;20099;-74
2022/10/31 01:12:40;;;;;;;89.30;35.72;;;;;;;;;;5029239;28;20030;-75
2022/10/31 01:15:06;;;;;;;84.00;36.00;;;;;;;;;;5054907;28;20051;-75
2022/10/31 01:17:31;;;;;;;93.93;37.88;;;;;;;;;;5048691;28;20029;-75
2022/10/31 01:19:57;;;;;;;86.13;37.00;;;;;;;;;;5032289;28;20039;-75
2022/10/31 01:22:22;;;;;;;91.50;37.00;;;;;;;;;;5052069;28;20033;-75
2022/10/31 01:24:47;;;;;;;92.73;37.37;;;;;;;;;;5049103;28;20312;-74
2022/10/31 01:27:12;;;;;;;98.17;36.93;;;;;;;;;;5028382;28;20350;-74
2022/10/31 01:29:38;;;;;;;101.30;38.37;;;;;;;;;;5056788;28;20049;-74
2022/10/31 01:32:03;;;;;;;101.13;37.70;;;;;;;;;;5051467;28;20029;-74
2022/10/31 01:34:28;;;;;;;89.07;35.67;;;;;;;;;;5048564;28;20289;-75
2022/10/31 01:36:53;;;;;;;91.23;36.57;;;;;;;;;;5055013;28;20017;-74
2022/10/31 01:39:19;;;;;;;86.63;36.23;;;;;;;;;;5053616;28;20314;-74
2022/10/31 01:41:48;;;;;;;87.38;35.47;;;;;;;;;;5054462;28;20028;-74
2022/10/31 01:44:14;;;;;;;81.40;31.85;;;;;;;;;;5050931;28;20040;-74
2022/10/31 01:46:41;;;;;;;80.20;33.20;;;;;;;;;;5053962;28;20024;-75
2022/10/31 01:49:14;;;;;;;82.35;33.08;;;;;;;;;;5051880;28;20037;-75
2022/10/31 01:51:44;;;;;;;88.40;34.47;;;;;;;;;;5054199;28;20032;-74
2022/10/31 01:54:12;;;;;;;87.13;35.28;;;;;;;;;;5049972;28;20045;-74
2022/10/31 01:56:39;;;;;;;94.28;34.00;;;;;;;;;;5050546;28;20029;-74
2022/10/31 01:59:07;;;;;;;97.18;35.30;;;;;;;;;;5053329;28;20089;-72
2022/10/31 02:01:33;;;;;;;95.03;34.23;;;;;;;;;;5032020;28;20033;-71
2022/10/31 02:03:58;;;;;;;95.53;35.27;;;;;;;;;;5053565;28;20390;-71
2022/10/31 02:06:35;;;;;;;89.80;35.40;;;;;;;;;;5026744;28;20281;-71
2022/10/31 02:09:01;;;;;;;99.15;36.58;;;;;;;;;;5033523;28;20637;-72
2022/10/31 02:11:28;;;;;;;91.13;35.15;;;;;;;;;;5050772;28;20514;-72
2022/10/31 02:13:53;;;;;;;87.82;32.83;;;;;;;;;;5039177;28;20108;-72
2022/10/31 02:16:18;;;;;;;91.28;34.20;;;;;;;;;;5034685;28;20550;-71
2022/10/31 02:18:44;;;;;;;87.70;33.58;;;;;;;;;;5053748;28;20035;-72
2022/10/31 02:21:15;;;;;;;88.80;33.97;;;;;;;;;;5057018;28;20035;-72
2022/10/31 02:23:59;;;;;;;94.53;34.47;;;;;;;;;;5050618;28;20032;-72
2022/10/31 02:26:43;;;;;;;89.57;34.20;;;;;;;;;;5025987;28;20037;-71
2022/10/31 02:29:27;;;;;;;90.97;33.90;;;;;;;;;;5048705;28;20056;-71
2022/10/31 02:31:59;;;;;;;94.30;33.83;;;;;;;;;;5051842;28;20344;-71
2022/10/31 02:34:40;;;;;;;101.60;34.83;;;;;;;;;;5052064;28;20032;-72
2022/10/31 02:37:08;;;;;;;105.78;36.30;;;;;;;;;;5048277;28;20029;-71
2022/10/31 02:39:38;;;;;;;87.65;34.13;;;;;;;;;;5053232;28;20021;-72
2022/10/31 02:42:24;;;;;;;94.47;34.03;;;;;;;;;;5054980;28;22188;-72
2022/10/31 02:45:09;;;;;;;100.65;34.13;;;;;;;;;;5028141;28;20862;-72
2022/10/31 02:47:38;;;;;;;97.20;32.65;;;;;;;;;;4996736;28;20044;-71
2022/10/31 02:50:14;;;;;;;88.00;34.30;;;;;;;;;;5052066;28;20029;-72
2022/10/31 02:52:39;;;;;;;95.25;34.83;;;;;;;;;;5047498;28;20309;-72
2022/10/31 02:55:12;;;;;;;92.03;34.38;;;;;;;;;;5053896;28;21084;-72
2022/10/31 02:57:39;;;;;;;97.18;34.33;;;;;;;;;;5054770;28;20120;-71
2022/10/31 03:00:06;;;;;;;98.70;34.42;;;;;;;;;;5049517;28;20091;-71
2022/10/31 03:02:40;;;;;;;98.55;33.13;;;;;;;;;;5032719;28;20112;-71
2022/10/31 03:05:05;;;;;;;97.72;33.55;;;;;;;;;;5030757;28;20025;-72
2022/10/31 03:07:36;;;;;;;89.63;32.77;;;;;;;;;;5054375;28;20477;-72
2022/10/31 03:10:04;;;;;;;84.07;32.80;;;;;;;;;;5050799;28;20347;-72
2022/10/31 03:12:53;;;;;;;86.75;31.23;;;;;;;;;;5028131;28;20033;-71
2022/10/31 03:15:28;;;;;;;98.87;33.17;;;;;;;;;;4950662;28;20138;-71
2022/10/31 03:18:03;;;;;;;91.25;31.55;;;;;;;;;;4948569;29;20525;-72
2022/10/31 03:20:33;;;;;;;94.93;32.45;;;;;;;;;;4950409;29;20031;-71
2022/10/31 03:22:59;;;;;;;95.28;31.52;;;;;;;;;;4945370;28;20101;-71
2022/10/31 03:25:25;;;;;;;92.30;31.92;;;;;;;;;;4935849;29;20035;-72
2022/10/31 03:27:51;;;;;;;95.70;32.17;;;;;;;;;;4947219;29;20059;-72
2022/10/31 03:30:16;;;;;;;94.88;34.40;;;;;;;;;;4948334;28;20477;-72
2022/10/31 03:32:48;;;;;;;100.93;33.58;;;;;;;;;;4945358;29;20074;-72
2022/10/31 03:35:15;;;;;;;94.32;33.55;;;;;;;;;;4947395;28;20039;-72
2022/10/31 03:37:41;;;;;;;95.43;35.10;;;;;;;;;;4950610;29;20062;-72
2022/10/31 03:40:08;;;;;;;108.57;33.97;;;;;;;;;;4946332;28;20408;-71
2022/10/31 03:42:34;;;;;;;97.65;33.83;;;;;;;;;;4945903;29;20106;-72
2022/10/31 03:45:06;;;;;;;107.80;34.42;;;;;;;10.08;nan;101257.94;4941413;29;20043;-72
2022/10/31 03:47:32;;;;;;;109.93;34.80;;;;;;;;;;4925011;29;20123;-72
2022/10/31 03:49:57;;;;;;;102.00;33.47;;;;;;;;;;4940594;28;20125;-72
2022/10/31 03:52:25;;;;;;;114.13;34.92;;;;;;;;;;4980516;28;20033;-72
2022/10/31 03:55:12;;;;;;;112.97;35.80;;;;;;;;;;5052337;28;20083;-72
2022/10/31 03:57:41;;;;;;;106.22;35.45;;;;;;;;;;5050116;28;20439;-71
2022/10/31 04:00:11;;;;;;;107.33;34.97;;;;;;;;;;5050965;28;20029;-72
2022/10/31 04:02:39;;;;;;;102.25;33.95;;;;;;;;;;5053548;28;20282;-72
2022/10/31 04:05:05;;;;;;;99.35;32.40;;;;;;;;;;5054205;28;20089;-72
2022/10/31 04:07:33;;;;;;;95.28;32.40;;;;;;;;;;5050521;28;20214;-72
2022/10/31 04:09:59;;;;;;;88.95;31.10;;;;;;;;;;5025391;28;20029;-71
2022/10/31 04:12:26;;;;;;;83.70;30.90;;;;;;;;;;5033806;28;20485;-71
2022/10/31 04:14:52;;;;;;;91.30;30.50;;;;;;;;;;5051146;28;20083;-73
2022/10/31 04:17:19;;;;;;;83.18;31.73;;;;;;;;;;5050600;28;20029;-73
2022/10/31 04:19:45;;;;;;;94.50;31.02;;;;;;;;;;5050486;28;20033;-72
2022/10/31 04:22:10;;;;;;;85.23;30.73;;;;;;;;;;5055627;28;20509;-72
2022/10/31 04:24:37;;;;;;;85.38;30.75;;;;;;;;;;5052189;28;20034;-72
2022/10/31 04:27:02;;;;;;;88.35;30.60;;;;;;;;;;5035618;28;20113;-73
2022/10/31 04:29:27;;;;;;;79.57;29.63;;;;;;;;;;5047559;28;20045;-72
2022/10/31 04:31:53;;;;;;;94.17;30.73;;;;;;;;;;5040697;28;20276;-73
2022/10/31 04:34:18;;;;;;;82.27;30.03;;;;;;;;;;5034696;28;20032;-72
2022/10/31 04:36:43;;;;;;;88.15;30.65;;;;;;;;;;5051486;28;20025;-71
2022/10/31 04:39:08;;;;;;;86.10;30.83;;;;;;;;;;5036153;28;20211;-72
2022/10/31 04:41:34;;;;;;;94.70;31.27;;;;;;;;;;5041793;28;20785;-72
2022/10/31 04:43:59;;;;;;;93.00;31.23;;;;;;;;;;5041252;28;20372;-72
2022/10/31 04:46:24;;;;;;;90.20;30.73;;;;;;;;;;5029381;28;20075;-72
2022/10/31 04:48:49;;;;;;;91.67;31.90;;;;;;;;;;5045447;28;20039;-72
2022/10/31 04:51:14;;;;;;;92.67;31.20;;;;;;;;;;5030780;28;20028;-72
2022/10/31 04:53:40;;;;;;;91.93;31.43;;;;;;;;;;5047567;28;20120;-71
2022/10/31 04:56:05;;;;;;;87.60;30.80;;;;;;;;;;5054015;28;20424;-70
2022/10/31 04:58:30;;;;;;;93.18;31.17;;;;;;;;;;5053050;28;20028;-71
2022/10/31 05:00:56;;;;;;;92.53;30.33;;;;;;;;;;5050899;28;20671;-72
2022/10/31 05:03:21;;;;;;;90.68;30.42;;;;;;;;;;5048511;28;20021;-72
2022/10/31 05:05:46;;;;;;;88.03;29.80;;;;;;;;;;5048741;28;20028;-71
2022/10/31 05:08:12;;;;;;;94.20;30.27;;;;;;;;;;5054192;28;20362;-71
2022/10/31 05:10:37;;;;;;;93.57;30.48;;;;;;;;;;5037735;28;20338;-71
2022/10/31 05:13:03;;;;;;;85.88;31.50;;;;;;;;;;5028702;28;20044;-70
2022/10/31 05:15:29;;;;;;;91.65;29.98;;;;;;;;;;5035771;28;20029;-73
2022/10/31 05:17:55;;;;;;;90.97;31.35;;;;;;;;;;5046798;28;20025;-73
2022/10/31 05:20:21;;;;;;;91.88;30.95;;;;;;;;;;5054897;28;20029;-73
2022/10/31 05:22:48;;;;;;;87.32;31.45;;;;;;;;;;5033720;28;20158;-74
2022/10/31 05:25:14;;;;;;;87.20;30.35;;;;;;;;;;5052211;28;20021;-74
2022/10/31 05:27:40;;;;;;;86.97;28.48;;;;;;;;;;5029265;28;20036;-75
2022/10/31 05:30:06;;;;;;;83.10;29.90;;;;;;;;;;5054595;28;20057;-75
2022/10/31 05:32:36;;;;;;;84.45;30.17;;;;;;;;;;5057503;28;20042;-73
2022/10/31 05:35:01;;;;;;;84.13;29.48;;;;;;;;;;5039797;28;20040;-73
2022/10/31 05:37:26;;;;;;;79.40;28.40;;;;;;;;;;5033566;28;20036;-75
2022/10/31 05:39:51;;;;;;;82.20;28.63;;;;;;;;;;5038091;28;20009;-75
2022/10/31 05:42:17;;;;;;;77.73;28.33;;;;;;;;;;5048307;28;20035;-74
2022/10/31 05:44:42;;;;;;;77.73;26.73;;;;;;;;;;5046645;28;20017;-75
2022/10/31 05:47:07;;;;;;;74.50;27.10;;;;;;;;;;5050466;28;20047;-74
2022/10/31 05:49:32;;;;;;;77.30;28.17;;;;;;;;;;5056370;28;20028;-73
2022/10/31 05:51:58;;;;;;;78.70;28.10;;;;;;;;;;5047611;28;20469;-73
2022/10/31 05:54:23;;;;;;;90.67;30.33;;;;;;;;;;5029767;28;20313;-73
2022/10/31 05:56:48;;;;;;;86.03;30.37;;;;;;;;;;5062804;28;20282;-74
2022/10/31 05:59:13;;;;;;;84.43;28.93;;;;;;;;;;5056223;28;20425;-74
2022/10/31 06:01:40;;;;;;;72.25;27.23;;;;;;;;;;5063659;28;20282;-72
2022/10/31 06:04:05;;;;;;;78.80;28.98;;;;;;;;;;5063820;28;20586;-73
2022/10/31 06:06:31;;;;;;;70.70;25.58;;;;;;;;;;5064376;28;20107;-71
2022/10/31 06:08:56;;;;;;;66.57;24.87;;;;;;;;;;5062057;28;20025;-71
2022/10/31 06:11:21;;;;;;;72.30;26.70;;;;;;;;;;5066662;28;20098;-71
2022/10/31 06:13:46;;;;;;;73.80;27.30;;;;;;;;;;5052468;28;20021;-73
2022/10/31 06:16:12;;;;;;;75.27;27.10;;;;;;;;;;5031828;28;20285;-72
2022/10/31 06:18:37;;;;;;;70.60;27.60;;;;;;;;;;5036772;28;20308;-73
2022/10/31 06:21:02;;;;;;;72.33;30.90;;;;;;;;;;5060434;28;20482;-72
2022/10/31 06:23:27;;;;;;;70.80;28.13;;;;;;;;;;5062934;28;20304;-73
2022/10/31 06:25:53;;;;;;;66.03;25.75;;;;;;;;;;5060733;28;20116;-73
2022/10/31 06:28:18;;;;;;;68.57;27.17;;;;;;;;;;5021828;28;20529;-72
2022/10/31 06:30:43;;;;;;;64.47;26.10;;;;;;;;;;5042831;28;20414;-73
2022/10/31 06:33:08;;;;;;;68.87;25.30;;;;;;;;;;5058738;28;20318;-72
2022/10/31 06:35:34;;;;;;;80.10;30.20;;;;;;;;;;5065348;28;20045;-74
2022/10/31 06:37:59;;;;;;;69.10;26.42;;;;;;;;;;5036695;28;20406;-72
2022/10/31 06:40:25;;;;;;;68.00;26.50;;;;;;;10.21;nan;101332.47;5024770;28;20029;-72
2022/10/31 06:42:57;;;;;;;69.88;27.50;;;;;;;;;;5063837;28;20312;-72
2022/10/31 06:45:22;;;;;;;71.63;27.02;;;;;;;;;;5035355;28;20021;-73
2022/10/31 06:47:54;;;;;;;76.67;27.10;;;;;;;;;;5033227;28;20036;-73
2022/10/31 06:50:20;;;;;;;78.03;26.40;;;;;;;;;;5032577;28;20075;-72
2022/10/31 06:52:54;;;;;;;76.40;27.35;;;;;;;;;;5041774;28;20067;-73
2022/10/31 06:55:22;;;;;;;74.43;26.25;;;;;;;;;;5050726;28;20537;-69
2022/10/31 06:57:54;;;;;;;75.85;29.73;;;;;;;;;;5055234;28;20024;-70
2022/10/31 07:00:19;;;;;;;84.72;33.03;;;;;;;;;;5044536;28;20025;-69
2022/10/31 07:02:52;;;;;;;77.80;29.05;;;;;;;;;;5051999;28;20033;-69
2022/10/31 07:05:17;;;;;;;85.60;28.92;;;;;;;;;;5053888;28;20032;-69
2022/10/31 07:07:43;;;;;;;83.03;27.93;;;;;;;;;;5054990;28;20021;-69
2022/10/31 07:10:08;;;;;;;77.23;27.63;;;;;;;;;;5052377;28;20116;-69
2022/10/31 07:12:33;;;;;;;89.25;30.35;;;;;;;;;;5054382;28;20617;-69
2022/10/31 07:14:58;;;;;;;89.90;29.47;;;;;;;;;;5041311;28;20048;-70
2022/10/31 07:17:24;;;;;;;80.13;29.60;;;;;;;;;;5051816;28;20039;-70
2022/10/31 07:19:49;;;;;;;83.07;28.90;;;;;;;;;;5048294;28;20341;-70
2022/10/31 07:22:15;;;;;;;87.37;29.37;;;;;;;;;;5049611;28;20490;-69
2022/10/31 07:24:40;;;;;;;84.60;29.33;;;;;;;;;;5046494;28;20028;-70
2022/10/31 07:27:05;;;;;;;87.35;29.45;;;;;;;;;;5048846;28;20036;-70
2022/10/31 07:29:30;;;;;;;93.22;31.17;;;;;;;;;;5043916;28;20052;-69
2022/10/31 07:31:56;;;;;;;90.87;30.40;;;;;;;;;;5049706;28;20051;-70
2022/10/31 07:34:21;;;;;;;92.90;31.02;;;;;;;;;;5046869;28;20025;-69
2022/10/31 07:36:46;;;;;;;86.88;30.00;;;;;;;;;;5049037;28;20402;-69
2022/10/31 07:39:11;;;;;;;92.20;29.60;;;;;;;;;;5050882;28;20037;-70
2022/10/31 07:41:37;;;;;;;81.55;28.45;;;;;;;;;;5030288;28;20032;-69
2022/10/31 07:44:02;;;;;;;87.33;28.83;;;;;;;;;;5051524;28;20036;-70
2022/10/31 07:46:27;;;;;;;86.25;29.67;;;;;;;;;;5049794;28;20350;-69
2022/10/31 07:48:53;;;;;;;104.13;28.80;;;;;;;;;;5052165;28;20178;-70
2022/10/31 07:51:18;;;;;;;107.30;32.50;;;;;;;;;;5051523;28;20029;-69
2022/10/31 07:53:43;;;;;;;104.20;30.83;;;;;;;;;;5053443;28;20029;-70
2022/10/31 07:56:08;;;;;;;104.30;32.20;;;;;;;;;;5038015;28;20361;-70
2022/10/31 07:58:34;;;;;;;111.93;32.90;;;;;;;;;;5049265;28;20288;-70
2022/10/31 08:00:59;;;;;;;113.53;33.47;;;;;;;;;;5047342;28;20316;-71
2022/10/31 08:03:24;;;;;;;109.00;33.00;;;;;;;;;;5050523;28;20029;-69
2022/10/31 08:05:49;;;;;;;106.82;31.88;;;;;;;;;;5031594;28;20372;-69
2022/10/31 08:08:15;;;;;;;114.23;33.27;;;;;;;;;;5048946;28;20052;-71
2022/10/31 08:10:40;;;;;;;108.55;32.03;;;;;;;;;;5046009;28;20064;-71
2022/10/31 08:13:14;;;;;;;107.73;33.70;;;;;;;;;;5029624;28;20082;-71
2022/10/31 08:15:41;;;;;;;102.40;33.03;;;;;;;;;;5051260;28;20304;-71
2022/10/31 08:18:10;;;;;;;105.55;32.85;;;;;;;;;;5049701;28;20124;-71
2022/10/31 08:20:35;;;;;;;109.85;34.33;;;;;;;;;;5030505;28;20103;-69
2022/10/31 08:23:02;;;;;;;104.27;33.23;;;;;;;;;;5038277;28;20112;-71
2022/10/31 08:25:28;;;;;;;108.38;35.67;;;;;;;;;;5047382;28;20108;-69
2022/10/31 08:27:54;;;;;;;103.22;33.30;;;;;;;;;;5051188;28;20025;-72
2022/10/31 08:30:20;;;;;;;99.03;32.42;;;;;;;;;;5053327;28;20051;-71
2022/10/31 08:32:45;;;;;;;99.65;31.95;;;;;;;;;;5046409;28;20028;-71
2022/10/31 08:35:11;;;;;;;112.97;34.38;;;;;;;;;;5052712;28;20094;-70
2022/10/31 08:37:36;;;;;;;104.07;34.28;;;;;;;;;;5050867;28;20028;-71
2022/10/31 08:40:01;;;;;;;103.20;33.57;;;;;;;;;;5055176;28;20025;-71
2022/10/31 08:42:26;;;;;;;104.53;32.20;;;;;;;;;;5036363;28;20075;-71
2022/10/31 08:44:51;;;;;;;108.73;33.33;;;;;;;;;;5051052;28;20025;-71
2022/10/31 08:47:17;;;;;;;107.27;34.70;;;;;;;;;;5047462;28;20020;-70
2022/10/31 08:49:42;;;;;;;106.37;34.23;;;;;;;;;;5051558;28;20052;-69
2022/10/31 08:52:07;;;;;;;101.27;34.40;;;;;;;;;;5051619;28;20024;-70
2022/10/31 08:54:32;;;;;;;110.57;35.73;;;;;;;;;;5036130;28;20058;-69
2022/10/31 08:56:58;;;;;;;111.83;35.70;;;;;;;;;;5054932;28;20108;-70
2022/10/31 08:59:23;;;;;;;101.72;32.25;;;;;;;;;;5044776;28;20060;-75
2022/10/31 09:01:48;;;;;;;97.57;32.77;;;;;;;;;;5034106;28;20025;-74
2022/10/31 09:04:13;;;;;;;103.13;34.63;;;;;;;;;;5031472;28;20274;-72
2022/10/31 09:06:39;;;;;;;100.93;35.93;;;;;;;;;;5046258;28;20270;-74
2022/10/31 09:09:04;;;;;;;109.07;35.28;;;;;;;;;;5049023;28;20331;-73
2022/10/31 09:11:30;;;;;;;103.03;34.00;;;;;;;;;;5055328;28;20138;-72
2022/10/31 09:13:55;;;;;;;105.53;34.53;;;;;;;;;;5050497;28;20060;-73
2022/10/31 09:16:20;;;;;;;99.13;33.83;;;;;;;;;;5046182;28;20098;-72
2022/10/31 09:18:46;;;;;;;107.13;35.27;;;;;;;;;;5044284;28;20025;-73
2022/10/31 09:21:11;;;;;;;1938.07;337.30;;;;;;;;;;5043958;28;20029;-72
2022/10/31 09:23:36;;;;;;;190.33;47.70;;;;;;;;;;5053981;28;20103;-73
2022/10/31 09:26:02;;;;;;;147.47;41.57;;;;;;;;;;5027460;28;20569;-73
2022/10/31 09:28:27;;;;;;;125.35;37.55;;;;;;;;;;5047667;28;20292;-73
2022/10/31 09:30:53;;;;;;;114.18;35.05;;;;;;;11.01;nan;101297.47;5032247;28;20048;-72
2022/10/31 09:33:19;;;;;;;107.03;36.80;;;;;;;;;;5045590;28;20051;-73
2022/10/31 09:35:44;;;;;;;108.20;36.73;;;;;;;;;;5022540;28;20040;-72
2022/10/31 09:38:16;;;;;;;101.57;34.80;;;;;;;;;;5047914;28;20033;-71
2022/10/31 09:41:02;;;;;;;98.85;33.63;;;;;;;;;;5039942;28;20324;-72
2022/10/31 09:43:41;;;;;;;101.40;34.08;;;;;;;;;;4979597;28;20034;-72
2022/10/31 09:46:25;;;;;;;98.68;33.15;;;;;;;;;;5045444;28;20108;-71
2022/10/31 09:49:07;;;;;;;98.15;32.58;;;;;;;;;;5047439;28;20040;-72
2022/10/31 09:51:32;;;;;;;97.43;33.40;;;;;;;;;;5027064;28;20029;-72
2022/10/31 09:54:21;;;;;;;104.37;34.43;;;;;;;;;;5025750;28;20059;-71
2022/10/31 09:56:46;;;;;;;111.18;35.90;;;;;;;;;;5040833;28;20026;-71
2022/10/31 09:59:18;;;;;;;106.78;34.28;;;;;;;;;;5048397;28;20363;-72
2022/10/31 10:01:47;;;;;;;103.10;33.25;;;;;;;;;;5041796;28;20029;-72
2022/10/31 10:04:31;;;;;;;88.35;32.28;;;;;;;;;;5052008;28;20486;-71
2022/10/31 10:06:56;;;;;;;104.97;33.00;;;;;;;;;;5027461;28;20033;-73
2022/10/31 10:09:24;;;;;;;96.20;34.65;;;;;;;;;;5056328;28;20035;-71
2022/10/31 10:12:28;;;;;;;103.90;35.08;;;;;;;;;;5034411;28;20489;-70
2022/10/31 10:14:59;;;;;;;98.57;33.45;;;;;;;;;;4949933;29;20035;-72
2022/10/31 10:17:36;;;;;;;106.55;34.45;;;;;;;;;;4940193;29;20024;-72
2022/10/31 10:20:10;;;;;;;96.57;35.30;;;;;;;;;;4946991;29;20506;-73
2022/10/31 10:22:55;;;;;;;94.55;34.22;;;;;;;;;;4946490;29;20063;-73
2022/10/31 10:25:24;;;;;;;102.28;35.22;;;;;;;;;;4935199;29;20027;-72
2022/10/31 10:27:59;;;;;;;100.32;33.78;;;;;;;;;;4931073;29;20556;-72
2022/10/31 10:30:42;;;;;;;102.13;34.33;;;;;;;;;;4948157;29;20414;-71
2022/10/31 10:33:11;;;;;;;96.88;32.25;;;;;;;;;;4947724;29;20039;-71
2022/10/31 10:35:49;;;;;;;92.85;32.55;;;;;;;;;;4935491;28;20039;-71
2022/10/31 10:38:25;;;;;;;91.95;32.45;;;;;;;;;;4944947;29;20047;-73
2022/10/31 10:40:51;;;;;;;89.57;32.22;;;;;;;;;;4943647;29;20512;-72
2022/10/31 10:43:35;;;;;;;90.22;32.58;;;;;;;;;;4945665;29;20070;-73
2022/10/31 10:49:16;;;;;;;93.63;33.50;;;;;;;;;;5043594;28;20043;-72
2022/10/31 10:51:44;;;;;;;85.18;30.83;;;;;;;;;;5048592;28;20151;-72
2022/10/31 10:54:13;;;;;;;90.72;32.38;;;;;;;;;;5049879;28;20033;-71
2022/10/31 10:56:57;;;;;;;95.75;32.08;;;;;;;;;;5048350;28;20029;-72
2022/10/31 10:59:23;;;;;;;91.43;32.08;;;;;;;;;;5046739;28;20025;-70
2022/10/31 11:01:50;;;;;;;94.05;34.28;;;;;;;;;;5052239;28;20029;-71
2022/10/31 11:04:35;;;;;;;84.07;30.40;;;;;;;;;;5053518;28;20439;-70
2022/10/31 11:07:03;;;;;;;86.13;31.63;;;;;;;;;;5050246;28;20151;-71
2022/10/31 11:09:28;;;;;;;81.60;31.48;;;;;;;;;;5042746;28;20026;-71
2022/10/31 11:11:54;;;;;;;89.50;32.75;;;;;;;;;;5039111;28;20108;-71
2022/10/31 11:14:20;;;;;;;81.82;31.95;;;;;;;;;;5019002;28;20451;-71
2022/10/31 11:16:47;;;;;;;88.05;33.13;;;;;;;;;;5060088;28;20030;-72
2022/10/31 11:19:14;;;;;;;83.75;31.88;;;;;;;;;;5044623;28;20448;-72
2022/10/31 11:21:40;;;;;;;93.38;34.15;;;;;;;;;;5052016;28;20029;-71
2022/10/31 11:24:08;;;;;;;96.47;34.65;;;;;;;;;;5029789;28;20514;-72
2022/10/31 11:26:35;;;;;;;84.07;33.03;;;;;;;11.78;nan;101319.56;5053336;28;20028;-72
2022/10/31 11:29:02;;;;;;;94.90;33.97;;;;;;;;;;5049667;28;20052;-71
2022/10/31 11:31:28;;;;;;;94.70;32.88;;;;;;;;;;5035225;28;20417;-72
2022/10/31 11:33:57;;;;;;;94.43;34.00;;;;;;;;;;5035857;28;20032;-71
2022/10/31 11:36:24;;;;;;;99.55;34.70;;;;;;;;;;5035074;28;20446;-71
2022/10/31 11:38:50;;;;;;;90.72;32.35;;;;;;;;;;5052064;28;20052;-71
2022/10/31 11:41:17;;;;;;;91.00;34.28;;;;;;;;;;5049020;28;20478;-71
2022/10/31 11:44:08;;;;;;;87.65;32.17;;;;;;;;;;5040521;28;20082;-71
2022/10/31 11:46:35;;;;;;;97.78;36.13;;;;;;;;;;5012253;28;20033;-72
2022/10/31 11:49:01;;;;;;;92.10;35.70;;;;;;;;;;5026004;28;20036;-71
2022/10/31 11:51:31;;;;;;;103.75;37.13;;;;;;;;;;5057587;28;20031;-72
2022/10/31 11:54:02;;;;;;;92.28;32.80;;;;;;;;;;5048079;28;20112;-72
2022/10/31 11:56:27;;;;;;;97.22;35.42;;;;;;;;;;5030531;28;20083;-71
2022/10/31 11:58:57;;;;;;;93.22;34.25;;;;;;;;;;5054296;28;20036;-72
2022/10/31 12:01:24;;;;;;;91.82;35.67;;;;;;;;;;5053074;28;20509;-71
2022/10/31 12:04:08;;;;;;;100.85;35.28;;;;;;;;;;5039016;28;20029;-72
2022/10/31 12:06:36;;;;;;;95.80;36.35;;;;;;;;;;5049769;28;20039;-72
2022/10/31 12:09:02;;;;;;;97.18;36.03;;;;;;;;;;5049738;28;20115;-71
2022/10/31 12:11:30;;;;;;;90.88;35.20;;;;;;;;;;5047319;28;20586;-71
2022/10/31 12:14:08;;;;;;;96.65;36.25;;;;;;;;;;5053332;28;20039;-71
2022/10/31 12:16:48;;;;;;;102.65;37.22;;;;;;;;;;5028220;28;20522;-71
2022/10/31 12:19:14;;;;;;;94.28;36.55;;;;;;;;;;5046722;28;20028;-71
2022/10/31 12:21:48;;;;;;;104.70;39.30;;;;;;;;;;5043063;28;20963;-71
2022/10/31 12:24:13;;;;;;;110.93;37.88;;;;;;;;;;5045978;28;20278;-70
2022/10/31 12:26:41;;;;;;;100.83;38.30;;;;;;;;;;5032559;28;20433;-71
2022/10/31 12:29:13;;;;;;;109.05;39.63;;;;;;;;;;5049295;28;20033;-71
2022/10/31 12:32:11;;;;;;;114.28;40.58;;;;;;;;;;5036904;28;20037;-70
2022/10/31 12:34:56;;;;;;;111.07;40.85;;;;;;;;;;5016128;28;20033;-71
2022/10/31 12:37:31;;;;;;;113.10;40.45;;;;;;;;;;5019828;28;20055;-71
2022/10/31 12:40:02;;;;;;;105.15;41.05;;;;;;;;;;5054213;28;20473;-71
2022/10/31 12:42:40;;;;;;;113.43;41.42;;;;;;;;;;5058478;28;20036;-71
2022/10/31 12:45:18;;;;;;;107.13;40.55;;;;;;;;;;5021557;28;20036;-71
2022/10/31 12:48:13;;;;;;;104.07;39.05;;;;;;;;;;5049244;28;20028;-71
2022/10/31 12:50:50;;;;;;;113.70;41.47;;;;;;;;;;5046333;28;20052;-70
2022/10/31 12:53:31;;;;;;;120.90;47.28;;;;;;;;;;5027365;28;20433;-71
2022/10/31 12:56:02;;;;;;;120.70;46.75;;;;;;;;;;5052696;28;20033;-71
2022/10/31 12:58:27;;;;;;;113.38;41.83;;;;;;;;;;5023681;28;20048;-71
2022/10/31 13:01:07;;;;;;;122.87;43.17;;;;;;;;;;5052114;28;20029;-71
2022/10/31 13:03:46;;;;;;;126.22;44.05;;;;;;;;;;5026205;28;20033;-71
2022/10/31 13:06:13;;;;;;;112.70;41.87;;;;;;;;;;5045537;28;20128;-71
2022/10/31 13:08:53;;;;;;;122.13;42.30;;;;;;;;;;5020595;28;20642;-71
2022/10/31 13:11:21;;;;;;;116.45;41.80;;;;;;;;;;5027834;28;20522;-71
2022/10/31 13:13:46;;;;;;;125.13;42.35;;;;;;;;;;5045806;28;20138;-71
2022/10/31 13:16:41;;;;;;;115.07;42.47;;;;;;;;;;5027851;28;20538;-70
2022/10/31 13:19:12;;;;;;;119.15;43.33;;;;;;;;;;5029461;28;20047;-71
2022/10/31 13:21:56;;;;;;;124.00;44.25;;;;;;;;;;5025103;28;20533;-71
2022/10/31 13:24:46;;;;;;;124.68;45.30;;;;;;;12.21;nan;101303.13;5046703;28;20029;-71
2022/10/31 13:27:33;;;;;;;126.82;45.60;;;;;;;;;;5046578;28;20136;-71
2022/10/31 13:30:15;;;;;;;123.43;45.28;;;;;;;;;;5047573;28;20192;-71
2022/10/31 13:32:44;;;;;;;123.95;43.63;;;;;;;;;;5035388;28;20033;-71
2022/10/31 13:35:30;;;;;;;121.88;44.38;;;;;;;;;;5068063;28;20029;-74
2022/10/31 13:38:05;;;;;;;122.85;45.42;;;;;;;;;;5017379;28;20037;-74
2022/10/31 13:40:37;;;;;;;122.88;46.08;;;;;;;;;;5033632;28;20046;-74
2022/10/31 13:43:02;;;;;;;126.07;45.30;;;;;;;;;;5049271;28;20537;-74
2022/10/31 13:45:28;;;;;;;123.23;44.53;;;;;;;;;;5049937;28;20033;-74
2022/10/31 13:48:12;;;;;;;126.63;46.92;;;;;;;;;;5033245;28;20347;-71
2022/10/31 13:50:39;;;;;;;126.88;46.78;;;;;;;;;;5035758;28;20387;-73
2022/10/31 13:53:10;;;;;;;124.50;46.40;;;;;;;;;;5033774;28;20431;-73
2022/10/31 13:55:58;;;;;;;120.18;47.10;;;;;;;;;;5049367;28;20068;-76
2022/10/31 13:58:28;;;;;;;121.20;44.17;;;;;;;;;;5053269;28;20536;-75
2022/10/31 14:00:53;;;;;;;;;;;;;;;;;;5052858;28;20032;-76
2022/10/31 14:03:19;;;;;;;104.75;40.30;;;;;;;;;;5049134;28;19913;-76
2022/10/31 14:05:52;;;;;;;128.32;46.90;;;;;;;;;;5049653;28;20033;-76
2022/10/31 14:08:18;;;;;;;129.75;46.03;;;;;;;;;;5034074;28;20533;-75
2022/10/31 14:10:51;;;;;;;119.38;45.28;;;;;;;12.33;nan;101297.94;5051712;28;20040;-74
2022/10/31 14:13:30;;;;;;;125.72;46.33;;;;;;;;;;5031900;28;20033;-73
2022/10/31 14:15:58;;;;;;;126.00;46.45;;;;;;;;;;5051786;28;20037;-74
2022/10/31 14:18:25;;;;;;;129.30;46.58;;;;;;;;;;5052131;28;20141;-73
2022/10/31 14:20:50;;;;;;;136.05;46.60;;;;;;;;;;5053096;28;20024;-72
2022/10/31 14:23:33;;;;;;;119.50;45.60;;;;;;;;;;5056840;28;20036;-70